Terminal Aerodrome Forecast
Issued by NWS Greer, SC

Home | Current Version | Previous Version | Text Only | Print | Product List | Glossary On
Versions: 1 2 3 4 5 6 7 8 9 10 11 12 13 14 15 16 17 18 19 20 21 22 23 24 25 26 27 28 29 30 31 32 33 34
000
FTUS42 KGSP 252335
TAFAVL
TAF
KAVL 252335Z 2600/2624 18007KT P6SM SCT060
     FM260300 17006KT P6SM VCSH SCT040 BKN060
     FM260700 17005KT 4SM BR VCSH OVC017
      TEMPO 2607/2611 2SM TSRA BR OVC013CB
     FM261300 17005KT P6SM VCSH OVC016
     FM261700 18007KT P6SM -SHRA OVC035 PROB30 2618/2624 3SM TSRA
      OVC025CB=

USA.gov is the U.S. government's official web portal to all federal, state and local government web resources and services.